sensor_id;sensor_type;location;lat;lon;timestamp;P1;durP1;ratioP1;P2;durP2;ratioP2
16228;SDS011;8222;51.462;12.630;2023-05-07T00:01:52;8.83;;;8.03;;
16228;SDS011;8222;51.462;12.630;2023-05-07T00:04:20;9.73;;;8.37;;
16228;SDS011;8222;51.462;12.630;2023-05-07T00:06:50;9.87;;;8.87;;
16228;SDS011;8222;51.462;12.630;2023-05-07T00:09:18;10.87;;;9.77;;
16228;SDS011;8222;51.462;12.630;2023-05-07T00:11:46;12.15;;;11.05;;
16228;SDS011;8222;51.462;12.630;2023-05-07T00:14:12;11.40;;;9.87;;
16228;SDS011;8222;51.462;12.630;2023-05-07T00:16:40;9.97;;;9.00;;
16228;SDS011;8222;51.462;12.630;2023-05-07T00:19:08;11.35;;;10.25;;
16228;SDS011;8222;51.462;12.630;2023-05-07T00:21:38;10.80;;;8.90;;
16228;SDS011;8222;51.462;12.630;2023-05-07T00:24:04;10.60;;;8.90;;
16228;SDS011;8222;51.462;12.630;2023-05-07T00:26:32;10.03;;;9.03;;
16228;SDS011;8222;51.462;12.630;2023-05-07T00:29:02;10.87;;;9.77;;
16228;SDS011;8222;51.462;12.630;2023-05-07T00:31:31;11.13;;;9.73;;
16228;SDS011;8222;51.462;12.630;2023-05-07T00:33:57;11.25;;;10.18;;
16228;SDS011;8222;51.462;12.630;2023-05-07T00:36:23;12.83;;;11.53;;
16228;SDS011;8222;51.462;12.630;2023-05-07T00:38:51;11.43;;;10.17;;
16228;SDS011;8222;51.462;12.630;2023-05-07T00:41:22;10.83;;;9.57;;
16228;SDS011;8222;51.462;12.630;2023-05-07T00:43:50;10.00;;;9.00;;
16228;SDS011;8222;51.462;12.630;2023-05-07T00:46:20;12.80;;;11.52;;
16228;SDS011;8222;51.462;12.630;2023-05-07T00:48:46;11.65;;;10.45;;
16228;SDS011;8222;51.462;12.630;2023-05-07T00:51:15;11.00;;;9.73;;
16228;SDS011;8222;51.462;12.630;2023-05-07T00:53:44;12.52;;;11.32;;
16228;SDS011;8222;51.462;12.630;2023-05-07T00:56:11;12.40;;;11.20;;
16228;SDS011;8222;51.462;12.630;2023-05-07T00:58:40;9.47;;;8.23;;
16228;SDS011;8222;51.462;12.630;2023-05-07T01:01:08;12.30;;;10.10;;
16228;SDS011;8222;51.462;12.630;2023-05-07T01:03:36;12.10;;;9.33;;
16228;SDS011;8222;51.462;12.630;2023-05-07T01:06:02;11.98;;;10.50;;
16228;SDS011;8222;51.462;12.630;2023-05-07T01:08:30;12.37;;;10.67;;
16228;SDS011;8222;51.462;12.630;2023-05-07T01:11:00;13.30;;;11.88;;
16228;SDS011;8222;51.462;12.630;2023-05-07T01:13:32;10.27;;;9.30;;
16228;SDS011;8222;51.462;12.630;2023-05-07T01:15:59;11.88;;;10.68;;
16228;SDS011;8222;51.462;12.630;2023-05-07T01:18:25;9.87;;;8.87;;
16228;SDS011;8222;51.462;12.630;2023-05-07T01:20:52;10.93;;;9.83;;
16228;SDS011;8222;51.462;12.630;2023-05-07T01:23:18;10.53;;;9.60;;
16228;SDS011;8222;51.462;12.630;2023-05-07T01:25:52;13.05;;;11.85;;
16228;SDS011;8222;51.462;12.630;2023-05-07T01:28:20;12.90;;;11.70;;
16228;SDS011;8222;51.462;12.630;2023-05-07T01:30:52;9.93;;;9.03;;
16228;SDS011;8222;51.462;12.630;2023-05-07T01:33:21;11.37;;;10.13;;
16228;SDS011;8222;51.462;12.630;2023-05-07T01:35:52;11.73;;;10.13;;
16228;SDS011;8222;51.462;12.630;2023-05-07T01:38:22;11.98;;;10.80;;
16228;SDS011;8222;51.462;12.630;2023-05-07T01:40:50;12.82;;;11.52;;
16228;SDS011;8222;51.462;12.630;2023-05-07T01:43:18;12.68;;;11.48;;
16228;SDS011;8222;51.462;12.630;2023-05-07T01:45:49;13.27;;;11.95;;
16228;SDS011;8222;51.462;12.630;2023-05-07T01:48:17;11.67;;;10.47;;
16228;SDS011;8222;51.462;12.630;2023-05-07T01:50:48;12.80;;;11.60;;
16228;SDS011;8222;51.462;12.630;2023-05-07T01:53:15;12.27;;;11.07;;
16228;SDS011;8222;51.462;12.630;2023-05-07T01:55:41;13.38;;;12.13;;
16228;SDS011;8222;51.462;12.630;2023-05-07T01:58:07;11.67;;;10.53;;
16228;SDS011;8222;51.462;12.630;2023-05-07T02:00:32;11.60;;;10.40;;
16228;SDS011;8222;51.462;12.630;2023-05-07T02:03:00;12.98;;;11.38;;
16228;SDS011;8222;51.462;12.630;2023-05-07T02:05:28;15.30;;;11.50;;
16228;SDS011;8222;51.462;12.630;2023-05-07T02:07:56;11.57;;;10.40;;
16228;SDS011;8222;51.462;12.630;2023-05-07T02:10:24;13.27;;;11.98;;
16228;SDS011;8222;51.462;12.630;2023-05-07T02:12:52;14.23;;;12.82;;
16228;SDS011;8222;51.462;12.630;2023-05-07T02:15:18;12.37;;;11.07;;
16228;SDS011;8222;51.462;12.630;2023-05-07T02:18:03;13.02;;;11.70;;
16228;SDS011;8222;51.462;12.630;2023-05-07T02:20:34;13.03;;;11.70;;
16228;SDS011;8222;51.462;12.630;2023-05-07T02:23:05;13.87;;;10.70;;
16228;SDS011;8222;51.462;12.630;2023-05-07T02:25:31;13.10;;;11.73;;
16228;SDS011;8222;51.462;12.630;2023-05-07T02:27:56;11.83;;;10.63;;
16228;SDS011;8222;51.462;12.630;2023-05-07T02:30:25;14.23;;;12.82;;
16228;SDS011;8222;51.462;12.630;2023-05-07T02:32:50;12.07;;;10.87;;
16228;SDS011;8222;51.462;12.630;2023-05-07T02:35:18;12.53;;;10.27;;
16228;SDS011;8222;51.462;12.630;2023-05-07T02:37:46;11.40;;;10.27;;
16228;SDS011;8222;51.462;12.630;2023-05-07T02:40:14;12.73;;;11.27;;
16228;SDS011;8222;51.462;12.630;2023-05-07T02:42:40;12.67;;;11.00;;
16228;SDS011;8222;51.462;12.630;2023-05-07T02:45:06;14.93;;;13.40;;
16228;SDS011;8222;51.462;12.630;2023-05-07T02:47:34;11.73;;;9.50;;
16228;SDS011;8222;51.462;12.630;2023-05-07T02:50:05;15.07;;;13.48;;
16228;SDS011;8222;51.462;12.630;2023-05-07T02:52:31;17.80;;;12.50;;
16228;SDS011;8222;51.462;12.630;2023-05-07T02:55:00;12.60;;;10.47;;
16228;SDS011;8222;51.462;12.630;2023-05-07T02:57:25;12.70;;;10.95;;
16228;SDS011;8222;51.462;12.630;2023-05-07T02:59:58;13.20;;;10.77;;
16228;SDS011;8222;51.462;12.630;2023-05-07T03:02:24;14.00;;;10.90;;
16228;SDS011;8222;51.462;12.630;2023-05-07T03:04:49;15.87;;;13.13;;
16228;SDS011;8222;51.462;12.630;2023-05-07T03:07:15;13.30;;;11.33;;
16228;SDS011;8222;51.462;12.630;2023-05-07T03:09:41;12.37;;;11.07;;
16228;SDS011;8222;51.462;12.630;2023-05-07T03:12:09;15.37;;;11.53;;
16228;SDS011;8222;51.462;12.630;2023-05-07T03:14:35;15.43;;;13.65;;
16228;SDS011;8222;51.462;12.630;2023-05-07T03:17:05;15.57;;;13.87;;
16228;SDS011;8222;51.462;12.630;2023-05-07T03:19:31;17.10;;;14.03;;
16228;SDS011;8222;51.462;12.630;2023-05-07T03:22:01;13.87;;;11.83;;
16228;SDS011;8222;51.462;12.630;2023-05-07T03:24:29;15.23;;;13.43;;
16228;SDS011;8222;51.462;12.630;2023-05-07T03:26:59;14.93;;;12.17;;
16228;SDS011;8222;51.462;12.630;2023-05-07T03:29:27;13.20;;;11.40;;
16228;SDS011;8222;51.462;12.630;2023-05-07T03:31:53;14.33;;;11.07;;
16228;SDS011;8222;51.462;12.630;2023-05-07T03:34:21;14.77;;;13.20;;
16228;SDS011;8222;51.462;12.630;2023-05-07T03:36:50;14.65;;;12.75;;
16228;SDS011;8222;51.462;12.630;2023-05-07T03:39:20;14.73;;;13.30;;
16228;SDS011;8222;51.462;12.630;2023-05-07T03:41:46;13.67;;;10.57;;
16228;SDS011;8222;51.462;12.630;2023-05-07T03:44:11;12.50;;;11.23;;
16228;SDS011;8222;51.462;12.630;2023-05-07T03:46:37;12.23;;;11.03;;
16228;SDS011;8222;51.462;12.630;2023-05-07T03:49:05;12.17;;;10.97;;
16228;SDS011;8222;51.462;12.630;2023-05-07T03:51:33;12.67;;;10.90;;
16228;SDS011;8222;51.462;12.630;2023-05-07T03:54:01;14.88;;;13.27;;
16228;SDS011;8222;51.462;12.630;2023-05-07T03:56:29;12.82;;;11.52;;
16228;SDS011;8222;51.462;12.630;2023-05-07T03:58:56;15.10;;;13.57;;
16228;SDS011;8222;51.462;12.630;2023-05-07T04:01:21;14.43;;;10.73;;
16228;SDS011;8222;51.462;12.630;2023-05-07T04:03:50;12.17;;;10.57;;
16228;SDS011;8222;51.462;12.630;2023-05-07T04:06:18;12.17;;;10.90;;
16228;SDS011;8222;51.462;12.630;2023-05-07T04:08:44;12.13;;;10.93;;
16228;SDS011;8222;51.462;12.630;2023-05-07T04:11:12;13.90;;;10.47;;
16228;SDS011;8222;51.462;12.630;2023-05-07T04:13:40;14.57;;;13.03;;
16228;SDS011;8222;51.462;12.630;2023-05-07T04:16:06;12.13;;;10.07;;
16228;SDS011;8222;51.462;12.630;2023-05-07T04:18:32;13.60;;;11.97;;
16228;SDS011;8222;51.462;12.630;2023-05-07T04:21:00;12.53;;;11.23;;
16228;SDS011;8222;51.462;12.630;2023-05-07T04:23:25;11.90;;;10.70;;
16228;SDS011;8222;51.462;12.630;2023-05-07T04:25:53;12.80;;;11.35;;
16228;SDS011;8222;51.462;12.630;2023-05-07T04:28:19;10.97;;;9.97;;
16228;SDS011;8222;51.462;12.630;2023-05-07T04:30:47;12.35;;;11.02;;
16228;SDS011;8222;51.462;12.630;2023-05-07T04:33:18;13.33;;;11.33;;
16228;SDS011;8222;51.462;12.630;2023-05-07T04:35:49;11.95;;;10.75;;
16228;SDS011;8222;51.462;12.630;2023-05-07T04:38:14;13.60;;;12.25;;
16228;SDS011;8222;51.462;12.630;2023-05-07T04:40:41;11.60;;;10.50;;
16228;SDS011;8222;51.462;12.630;2023-05-07T04:43:07;12.33;;;10.43;;
16228;SDS011;8222;51.462;12.630;2023-05-07T04:45:35;10.63;;;9.38;;
16228;SDS011;8222;51.462;12.630;2023-05-07T04:48:01;11.17;;;9.23;;
16228;SDS011;8222;51.462;12.630;2023-05-07T04:50:30;11.23;;;10.07;;
16228;SDS011;8222;51.462;12.630;2023-05-07T04:52:56;10.55;;;9.55;;
16228;SDS011;8222;51.462;12.630;2023-05-07T04:55:21;8.80;;;7.90;;
16228;SDS011;8222;51.462;12.630;2023-05-07T04:57:49;9.00;;;8.10;;
16228;SDS011;8222;51.462;12.630;2023-05-07T05:00:15;9.30;;;8.23;;
16228;SDS011;8222;51.462;12.630;2023-05-07T05:02:44;9.30;;;8.43;;
16228;SDS011;8222;51.462;12.630;2023-05-07T05:05:10;9.23;;;8.40;;
16228;SDS011;8222;51.462;12.630;2023-05-07T05:07:39;9.30;;;8.23;;
16228;SDS011;8222;51.462;12.630;2023-05-07T05:10:05;10.10;;;9.17;;
16228;SDS011;8222;51.462;12.630;2023-05-07T05:12:31;9.90;;;8.37;;
16228;SDS011;8222;51.462;12.630;2023-05-07T05:14:56;8.53;;;7.83;;
16228;SDS011;8222;51.462;12.630;2023-05-07T05:17:22;10.48;;;8.85;;
16228;SDS011;8222;51.462;12.630;2023-05-07T05:19:48;9.43;;;8.48;;
16228;SDS011;8222;51.462;12.630;2023-05-07T05:22:14;8.80;;;8.00;;
16228;SDS011;8222;51.462;12.630;2023-05-07T05:24:40;9.80;;;8.90;;
16228;SDS011;8222;51.462;12.630;2023-05-07T05:27:10;8.30;;;7.50;;
16228;SDS011;8222;51.462;12.630;2023-05-07T05:29:38;7.90;;;7.10;;
16228;SDS011;8222;51.462;12.630;2023-05-07T05:32:03;6.87;;;6.27;;
16228;SDS011;8222;51.462;12.630;2023-05-07T05:34:32;7.90;;;7.17;;
16228;SDS011;8222;51.462;12.630;2023-05-07T05:36:58;9.52;;;8.63;;
16228;SDS011;8222;51.462;12.630;2023-05-07T05:39:24;8.63;;;7.80;;
16228;SDS011;8222;51.462;12.630;2023-05-07T05:41:50;10.57;;;9.57;;
16228;SDS011;8222;51.462;12.630;2023-05-07T05:44:18;8.73;;;7.97;;
16228;SDS011;8222;51.462;12.630;2023-05-07T05:46:49;8.53;;;7.63;;
16228;SDS011;8222;51.462;12.630;2023-05-07T05:49:16;9.32;;;8.43;;
16228;SDS011;8222;51.462;12.630;2023-05-07T05:51:44;8.20;;;7.33;;
16228;SDS011;8222;51.462;12.630;2023-05-07T05:54:10;9.15;;;8.20;;
16228;SDS011;8222;51.462;12.630;2023-05-07T05:56:36;8.27;;;7.47;;
16228;SDS011;8222;51.462;12.630;2023-05-07T05:59:04;7.87;;;7.17;;
16228;SDS011;8222;51.462;12.630;2023-05-07T06:01:32;7.87;;;6.67;;
16228;SDS011;8222;51.462;12.630;2023-05-07T06:03:58;9.27;;;8.43;;
16228;SDS011;8222;51.462;12.630;2023-05-07T06:06:26;7.97;;;7.20;;
16228;SDS011;8222;51.462;12.630;2023-05-07T06:08:56;6.97;;;6.27;;
16228;SDS011;8222;51.462;12.630;2023-05-07T06:11:22;8.23;;;6.95;;
16228;SDS011;8222;51.462;12.630;2023-05-07T06:13:48;7.27;;;6.30;;
16228;SDS011;8222;51.462;12.630;2023-05-07T06:16:13;7.70;;;7.00;;
16228;SDS011;8222;51.462;12.630;2023-05-07T06:18:42;6.83;;;6.23;;
16228;SDS011;8222;51.462;12.630;2023-05-07T06:21:09;6.77;;;6.27;;
16228;SDS011;8222;51.462;12.630;2023-05-07T06:23:35;7.75;;;7.05;;
16228;SDS011;8222;51.462;12.630;2023-05-07T06:26:05;6.37;;;5.87;;
16228;SDS011;8222;51.462;12.630;2023-05-07T06:28:31;6.45;;;5.85;;
16228;SDS011;8222;51.462;12.630;2023-05-07T06:33:41;6.68;;;6.00;;
16228;SDS011;8222;51.462;12.630;2023-05-07T06:36:08;6.60;;;5.90;;
16228;SDS011;8222;51.462;12.630;2023-05-07T06:38:36;5.50;;;5.00;;
16228;SDS011;8222;51.462;12.630;2023-05-07T06:41:05;6.35;;;5.80;;
16228;SDS011;8222;51.462;12.630;2023-05-07T06:43:31;6.35;;;5.63;;
16228;SDS011;8222;51.462;12.630;2023-05-07T06:45:57;6.17;;;5.57;;
16228;SDS011;8222;51.462;12.630;2023-05-07T06:48:25;6.27;;;5.77;;
16228;SDS011;8222;51.462;12.630;2023-05-07T06:50:51;7.22;;;6.53;;
16228;SDS011;8222;51.462;12.630;2023-05-07T06:53:17;6.17;;;5.60;;
16228;SDS011;8222;51.462;12.630;2023-05-07T06:55:47;6.03;;;5.50;;
16228;SDS011;8222;51.462;12.630;2023-05-07T06:58:15;5.77;;;5.27;;
16228;SDS011;8222;51.462;12.630;2023-05-07T07:00:43;6.43;;;5.13;;
16228;SDS011;8222;51.462;12.630;2023-05-07T07:03:11;5.78;;;5.28;;
16228;SDS011;8222;51.462;12.630;2023-05-07T07:05:37;5.17;;;4.77;;
16228;SDS011;8222;51.462;12.630;2023-05-07T07:08:05;5.50;;;5.00;;
16228;SDS011;8222;51.462;12.630;2023-05-07T07:10:31;5.53;;;5.13;;
16228;SDS011;8222;51.462;12.630;2023-05-07T07:12:59;5.50;;;5.00;;
16228;SDS011;8222;51.462;12.630;2023-05-07T07:15:25;4.87;;;4.47;;
16228;SDS011;8222;51.462;12.630;2023-05-07T07:17:51;5.65;;;5.15;;
16228;SDS011;8222;51.462;12.630;2023-05-07T07:20:17;5.83;;;5.33;;
16228;SDS011;8222;51.462;12.630;2023-05-07T07:22:43;4.90;;;4.50;;
16228;SDS011;8222;51.462;12.630;2023-05-07T07:25:11;5.83;;;5.40;;
16228;SDS011;8222;51.462;12.630;2023-05-07T07:27:37;5.73;;;5.03;;
16228;SDS011;8222;51.462;12.630;2023-05-07T07:30:07;6.15;;;5.65;;
16228;SDS011;8222;51.462;12.630;2023-05-07T07:32:34;6.83;;;6.13;;
16228;SDS011;8222;51.462;12.630;2023-05-07T07:34:59;7.80;;;6.83;;
16228;SDS011;8222;51.462;12.630;2023-05-07T07:37:28;6.78;;;6.18;;
16228;SDS011;8222;51.462;12.630;2023-05-07T07:39:57;7.35;;;6.65;;
16228;SDS011;8222;51.462;12.630;2023-05-07T07:42:28;8.03;;;6.77;;
16228;SDS011;8222;51.462;12.630;2023-05-07T07:44:57;8.48;;;7.78;;
16228;SDS011;8222;51.462;12.630;2023-05-07T07:47:25;7.30;;;6.60;;
16228;SDS011;8222;51.462;12.630;2023-05-07T07:49:51;6.90;;;6.30;;
16228;SDS011;8222;51.462;12.630;2023-05-07T07:52:16;8.20;;;7.40;;
16228;SDS011;8222;51.462;12.630;2023-05-07T07:54:44;7.40;;;6.60;;
16228;SDS011;8222;51.462;12.630;2023-05-07T07:57:09;8.57;;;7.68;;
16228;SDS011;8222;51.462;12.630;2023-05-07T07:59:37;7.90;;;7.10;;
16228;SDS011;8222;51.462;12.630;2023-05-07T08:02:04;8.03;;;7.23;;
16228;SDS011;8222;51.462;12.630;2023-05-07T08:04:32;7.53;;;6.83;;
16228;SDS011;8222;51.462;12.630;2023-05-07T08:06:58;7.87;;;7.17;;
16228;SDS011;8222;51.462;12.630;2023-05-07T08:09:26;9.00;;;8.20;;
16228;SDS011;8222;51.462;12.630;2023-05-07T08:11:51;8.37;;;7.50;;
16228;SDS011;8222;51.462;12.630;2023-05-07T08:14:20;9.07;;;8.27;;
16228;SDS011;8222;51.462;12.630;2023-05-07T08:16:46;8.40;;;7.32;;
16228;SDS011;8222;51.462;12.630;2023-05-07T08:19:11;7.20;;;6.33;;
16228;SDS011;8222;51.462;12.630;2023-05-07T08:21:40;7.33;;;6.63;;
16228;SDS011;8222;51.462;12.630;2023-05-07T08:24:06;8.83;;;8.00;;
16228;SDS011;8222;51.462;12.630;2023-05-07T08:26:34;9.47;;;8.43;;
16228;SDS011;8222;51.462;12.630;2023-05-07T08:29:04;9.25;;;8.27;;
16228;SDS011;8222;51.462;12.630;2023-05-07T08:31:32;7.83;;;7.03;;
16228;SDS011;8222;51.462;12.630;2023-05-07T08:33:58;8.13;;;7.30;;
16228;SDS011;8222;51.462;12.630;2023-05-07T08:36:26;8.70;;;7.80;;
16228;SDS011;8222;51.462;12.630;2023-05-07T08:38:53;8.40;;;7.60;;
16228;SDS011;8222;51.462;12.630;2023-05-07T08:41:21;7.95;;;7.30;;
16228;SDS011;8222;51.462;12.630;2023-05-07T08:43:50;8.88;;;8.02;;
16228;SDS011;8222;51.462;12.630;2023-05-07T08:46:17;8.05;;;7.35;;
16228;SDS011;8222;51.462;12.630;2023-05-07T08:48:44;7.87;;;7.07;;
16228;SDS011;8222;51.462;12.630;2023-05-07T08:51:13;7.33;;;6.63;;
16228;SDS011;8222;51.462;12.630;2023-05-07T08:53:41;7.63;;;6.93;;
16228;SDS011;8222;51.462;12.630;2023-05-07T08:56:09;9.48;;;8.48;;
16228;SDS011;8222;51.462;12.630;2023-05-07T08:58:40;8.80;;;7.87;;
16228;SDS011;8222;51.462;12.630;2023-05-07T09:01:09;8.17;;;7.43;;
16228;SDS011;8222;51.462;12.630;2023-05-07T09:03:38;9.23;;;8.27;;
16228;SDS011;8222;51.462;12.630;2023-05-07T09:06:04;7.97;;;7.17;;
16228;SDS011;8222;51.462;12.630;2023-05-07T09:08:33;9.75;;;8.85;;
16228;SDS011;8222;51.462;12.630;2023-05-07T09:11:00;9.52;;;8.63;;
16228;SDS011;8222;51.462;12.630;2023-05-07T09:13:27;8.40;;;7.60;;
16228;SDS011;8222;51.462;12.630;2023-05-07T09:15:55;8.57;;;7.73;;
16228;SDS011;8222;51.462;12.630;2023-05-07T09:18:21;8.23;;;7.53;;
16228;SDS011;8222;51.462;12.630;2023-05-07T09:20:50;9.10;;;8.20;;
16228;SDS011;8222;51.462;12.630;2023-05-07T09:23:16;9.27;;;8.43;;
16228;SDS011;8222;51.462;12.630;2023-05-07T09:25:41;8.27;;;7.57;;
16228;SDS011;8222;51.462;12.630;2023-05-07T09:28:07;8.17;;;7.30;;
16228;SDS011;8222;51.462;12.630;2023-05-07T09:30:35;8.15;;;7.43;;
16228;SDS011;8222;51.462;12.630;2023-05-07T09:33:01;7.07;;;6.47;;
16228;SDS011;8222;51.462;12.630;2023-05-07T09:35:28;7.40;;;6.80;;
16228;SDS011;8222;51.462;12.630;2023-05-07T09:37:55;9.30;;;8.43;;
16228;SDS011;8222;51.462;12.630;2023-05-07T09:40:22;8.47;;;6.37;;
16228;SDS011;8222;51.462;12.630;2023-05-07T09:42:50;7.57;;;6.78;;
16228;SDS011;8222;51.462;12.630;2023-05-07T09:45:27;7.25;;;6.65;;
16228;SDS011;8222;51.462;12.630;2023-05-07T09:47:54;6.77;;;6.27;;
16228;SDS011;8222;51.462;12.630;2023-05-07T09:50:29;8.30;;;7.07;;
16228;SDS011;8222;51.462;12.630;2023-05-07T09:53:01;6.37;;;5.87;;
16228;SDS011;8222;51.462;12.630;2023-05-07T09:55:29;8.68;;;7.93;;
16228;SDS011;8222;51.462;12.630;2023-05-07T09:57:58;6.60;;;6.00;;
16228;SDS011;8222;51.462;12.630;2023-05-07T10:00:29;7.80;;;7.17;;
16228;SDS011;8222;51.462;12.630;2023-05-07T10:02:56;7.83;;;6.63;;
16228;SDS011;8222;51.462;12.630;2023-05-07T10:05:25;7.90;;;6.93;;
16228;SDS011;8222;51.462;12.630;2023-05-07T10:07:51;6.67;;;5.93;;
16228;SDS011;8222;51.462;12.630;2023-05-07T10:10:19;7.87;;;7.17;;
16228;SDS011;8222;51.462;12.630;2023-05-07T10:12:45;9.10;;;8.40;;
16228;SDS011;8222;51.462;12.630;2023-05-07T10:15:11;7.63;;;7.03;;
16228;SDS011;8222;51.462;12.630;2023-05-07T10:17:40;7.53;;;6.73;;
16228;SDS011;8222;51.462;12.630;2023-05-07T10:20:06;6.97;;;6.33;;
16228;SDS011;8222;51.462;12.630;2023-05-07T10:22:39;8.30;;;7.50;;
16228;SDS011;8222;51.462;12.630;2023-05-07T10:25:14;8.52;;;7.82;;
16228;SDS011;8222;51.462;12.630;2023-05-07T10:27:46;6.97;;;6.37;;
16228;SDS011;8222;51.462;12.630;2023-05-07T10:30:33;7.57;;;6.87;;
16228;SDS011;8222;51.462;12.630;2023-05-07T10:33:04;7.10;;;6.57;;
16228;SDS011;8222;51.462;12.630;2023-05-07T10:35:43;7.03;;;6.43;;
16228;SDS011;8222;51.462;12.630;2023-05-07T10:38:15;8.50;;;7.80;;
16228;SDS011;8222;51.462;12.630;2023-05-07T10:40:44;7.95;;;7.35;;
16228;SDS011;8222;51.462;12.630;2023-05-07T10:43:14;7.00;;;6.50;;
16228;SDS011;8222;51.462;12.630;2023-05-07T10:46:08;7.90;;;6.60;;
16228;SDS011;8222;51.462;12.630;2023-05-07T10:51:35;5.43;;;4.93;;
16228;SDS011;8222;51.462;12.630;2023-05-07T10:56:37;5.77;;;5.03;;
16228;SDS011;8222;51.462;12.630;2023-05-07T11:04:18;6.20;;;5.80;;
16228;SDS011;8222;51.462;12.630;2023-05-07T11:12:45;7.32;;;6.70;;
16228;SDS011;8222;51.462;12.630;2023-05-07T11:17:32;6.60;;;6.00;;
16228;SDS011;8222;51.462;12.630;2023-05-07T11:20:02;8.00;;;7.30;;
16228;SDS011;8222;51.462;12.630;2023-05-07T11:25:03;9.02;;;8.30;;
16228;SDS011;8222;51.462;12.630;2023-05-07T11:27:30;8.37;;;7.63;;
16228;SDS011;8222;51.462;12.630;2023-05-07T11:29:59;6.70;;;6.20;;
16228;SDS011;8222;51.462;12.630;2023-05-07T11:32:29;8.13;;;6.23;;
16228;SDS011;8222;51.462;12.630;2023-05-07T11:34:58;6.40;;;5.90;;
16228;SDS011;8222;51.462;12.630;2023-05-07T11:37:28;8.20;;;7.50;;
16228;SDS011;8222;51.462;12.630;2023-05-07T11:40:04;7.27;;;6.67;;
16228;SDS011;8222;51.462;12.630;2023-05-07T11:42:35;7.60;;;7.05;;
16228;SDS011;8222;51.462;12.630;2023-05-07T11:45:06;8.65;;;7.95;;
16228;SDS011;8222;51.462;12.630;2023-05-07T11:47:33;7.03;;;6.43;;
16228;SDS011;8222;51.462;12.630;2023-05-07T11:50:03;8.05;;;7.45;;
16228;SDS011;8222;51.462;12.630;2023-05-07T11:52:33;6.77;;;6.27;;
16228;SDS011;8222;51.462;12.630;2023-05-07T11:55:00;6.43;;;5.93;;
16228;SDS011;8222;51.462;12.630;2023-05-07T11:57:28;5.63;;;5.13;;
16228;SDS011;8222;51.462;12.630;2023-05-07T11:59:58;6.27;;;5.77;;
16228;SDS011;8222;51.462;12.630;2023-05-07T12:02:29;5.30;;;4.83;;
16228;SDS011;8222;51.462;12.630;2023-05-07T12:04:56;5.57;;;4.60;;
16228;SDS011;8222;51.462;12.630;2023-05-07T12:07:23;5.13;;;4.73;;
16228;SDS011;8222;51.462;12.630;2023-05-07T12:09:49;4.90;;;3.80;;
16228;SDS011;8222;51.462;12.630;2023-05-07T12:12:15;4.70;;;4.30;;
16228;SDS011;8222;51.462;12.630;2023-05-07T12:14:42;6.23;;;4.80;;
16228;SDS011;8222;51.462;12.630;2023-05-07T12:17:14;5.17;;;4.77;;
16228;SDS011;8222;51.462;12.630;2023-05-07T12:19:42;5.33;;;4.87;;
16228;SDS011;8222;51.462;12.630;2023-05-07T12:22:12;5.93;;;5.43;;
16228;SDS011;8222;51.462;12.630;2023-05-07T12:27:23;4.70;;;4.30;;
16228;SDS011;8222;51.462;12.630;2023-05-07T12:29:49;4.80;;;4.40;;
16228;SDS011;8222;51.462;12.630;2023-05-07T12:32:16;4.47;;;4.07;;
16228;SDS011;8222;51.462;12.630;2023-05-07T12:34:43;4.40;;;4.00;;
16228;SDS011;8222;51.462;12.630;2023-05-07T12:37:09;4.13;;;3.73;;
16228;SDS011;8222;51.462;12.630;2023-05-07T12:39:35;4.90;;;4.50;;
16228;SDS011;8222;51.462;12.630;2023-05-07T12:42:14;4.70;;;4.30;;
16228;SDS011;8222;51.462;12.630;2023-05-07T12:44:41;4.07;;;3.78;;
16228;SDS011;8222;51.462;12.630;2023-05-07T12:47:10;4.50;;;4.10;;
16228;SDS011;8222;51.462;12.630;2023-05-07T12:49:37;5.50;;;5.00;;
16228;SDS011;8222;51.462;12.630;2023-05-07T12:52:03;5.03;;;4.63;;
16228;SDS011;8222;51.462;12.630;2023-05-07T12:54:33;4.75;;;4.40;;
16228;SDS011;8222;51.462;12.630;2023-05-07T12:57:04;5.73;;;4.00;;
16228;SDS011;8222;51.462;12.630;2023-05-07T12:59:39;3.83;;;3.53;;
16228;SDS011;8222;51.462;12.630;2023-05-07T13:02:08;7.03;;;6.43;;
16228;SDS011;8222;51.462;12.630;2023-05-07T13:04:34;4.23;;;3.83;;
16228;SDS011;8222;51.462;12.630;2023-05-07T13:07:00;3.33;;;3.03;;
16228;SDS011;8222;51.462;12.630;2023-05-07T13:09:29;4.55;;;4.15;;
16228;SDS011;8222;51.462;12.630;2023-05-07T13:11:56;5.10;;;4.70;;
16228;SDS011;8222;51.462;12.630;2023-05-07T13:14:25;4.95;;;4.55;;
16228;SDS011;8222;51.462;12.630;2023-05-07T13:16:52;4.57;;;3.67;;
16228;SDS011;8222;51.462;12.630;2023-05-07T13:19:19;4.77;;;3.80;;
16228;SDS011;8222;51.462;12.630;2023-05-07T13:21:44;3.80;;;3.50;;
16228;SDS011;8222;51.462;12.630;2023-05-07T13:24:10;4.40;;;4.10;;
16228;SDS011;8222;51.462;12.630;2023-05-07T13:26:38;4.27;;;3.87;;
16228;SDS011;8222;51.462;12.630;2023-05-07T13:29:04;4.10;;;3.80;;
16228;SDS011;8222;51.462;12.630;2023-05-07T13:31:30;3.70;;;3.50;;
16228;SDS011;8222;51.462;12.630;2023-05-07T13:33:58;4.07;;;3.78;;
16228;SDS011;8222;51.462;12.630;2023-05-07T13:36:24;3.70;;;3.40;;
16228;SDS011;8222;51.462;12.630;2023-05-07T13:38:50;3.00;;;2.80;;
16228;SDS011;8222;51.462;12.630;2023-05-07T13:41:18;3.30;;;3.10;;
16228;SDS011;8222;51.462;12.630;2023-05-07T13:43:46;3.47;;;3.17;;
16228;SDS011;8222;51.462;12.630;2023-05-07T13:46:17;3.80;;;3.00;;
16228;SDS011;8222;51.462;12.630;2023-05-07T13:48:42;2.60;;;2.50;;
16228;SDS011;8222;51.462;12.630;2023-05-07T13:51:08;3.23;;;3.03;;
16228;SDS011;8222;51.462;12.630;2023-05-07T13:53:38;2.67;;;2.58;;
16228;SDS011;8222;51.462;12.630;2023-05-07T13:56:04;2.43;;;2.30;;
16228;SDS011;8222;51.462;12.630;2023-05-07T13:58:30;2.67;;;2.50;;
16228;SDS011;8222;51.462;12.630;2023-05-07T14:00:58;2.43;;;2.23;;
16228;SDS011;8222;51.462;12.630;2023-05-07T14:03:26;2.73;;;2.60;;
16228;SDS011;8222;51.462;12.630;2023-05-07T14:05:54;4.77;;;4.37;;
16228;SDS011;8222;51.462;12.630;2023-05-07T14:08:22;2.83;;;2.63;;
16228;SDS011;8222;51.462;12.630;2023-05-07T14:10:48;3.30;;;2.80;;
16228;SDS011;8222;51.462;12.630;2023-05-07T14:13:14;2.80;;;2.60;;
16228;SDS011;8222;51.462;12.630;2023-05-07T14:15:39;3.05;;;2.85;;
16228;SDS011;8222;51.462;12.630;2023-05-07T14:18:11;2.87;;;2.67;;
16228;SDS011;8222;51.462;12.630;2023-05-07T14:20:42;3.10;;;2.90;;
16228;SDS011;8222;51.462;12.630;2023-05-07T14:23:12;2.80;;;2.63;;
16228;SDS011;8222;51.462;12.630;2023-05-07T14:25:39;2.90;;;2.70;;
16228;SDS011;8222;51.462;12.630;2023-05-07T14:28:04;3.20;;;2.90;;
16228;SDS011;8222;51.462;12.630;2023-05-07T14:30:32;3.33;;;3.13;;
16228;SDS011;8222;51.462;12.630;2023-05-07T14:32:58;2.90;;;2.70;;
16228;SDS011;8222;51.462;12.630;2023-05-07T14:35:23;3.07;;;2.87;;
16228;SDS011;8222;51.462;12.630;2023-05-07T14:37:51;2.97;;;2.77;;
16228;SDS011;8222;51.462;12.630;2023-05-07T14:40:17;2.90;;;2.70;;
16228;SDS011;8222;51.462;12.630;2023-05-07T14:42:42;3.63;;;3.33;;
16228;SDS011;8222;51.462;12.630;2023-05-07T14:45:08;3.92;;;3.13;;
16228;SDS011;8222;51.462;12.630;2023-05-07T14:47:34;2.92;;;2.72;;
16228;SDS011;8222;51.462;12.630;2023-05-07T14:50:00;2.97;;;2.77;;
16228;SDS011;8222;51.462;12.630;2023-05-07T14:52:26;2.70;;;2.50;;
16228;SDS011;8222;51.462;12.630;2023-05-07T14:54:55;3.65;;;3.38;;
16228;SDS011;8222;51.462;12.630;2023-05-07T14:57:20;4.53;;;4.22;;
16228;SDS011;8222;51.462;12.630;2023-05-07T14:59:48;4.27;;;3.97;;
16228;SDS011;8222;51.462;12.630;2023-05-07T15:02:14;4.27;;;3.60;;
16228;SDS011;8222;51.462;12.630;2023-05-07T15:04:40;4.00;;;3.70;;
16228;SDS011;8222;51.462;12.630;2023-05-07T15:07:13;4.10;;;3.80;;
16228;SDS011;8222;51.462;12.630;2023-05-07T15:09:42;4.10;;;3.70;;
16228;SDS011;8222;51.462;12.630;2023-05-07T15:12:09;4.13;;;3.77;;